createdAt,value
2022-10-15T00:01:53.059Z,97406.28
2022-10-15T00:04:21.847Z,97408.91
2022-10-15T00:06:50.757Z,97407.28
2022-10-15T00:09:19.276Z,97400.41
2022-10-15T00:11:48.253Z,97392.31
2022-10-15T00:14:17.068Z,97396.78
2022-10-15T00:16:47.119Z,97394.94
2022-10-15T00:19:15.576Z,97402.84
2022-10-15T00:21:44.035Z,97396.78
2022-10-15T00:24:13.844Z,97398.59
2022-10-15T00:26:43.135Z,97401.22
2022-10-15T00:29:12.288Z,97395.97
2022-10-15T00:31:40.688Z,97385.44
2022-10-15T00:34:12.496Z,97399.41
2022-10-15T00:36:41.588Z,97402.03
2022-10-15T00:39:10.883Z,97397.22
2022-10-15T00:41:44.587Z,97408.56
2022-10-15T00:44:55.018Z,97398.81
2022-10-15T00:47:40.135Z,97404.06
2022-10-15T00:50:15.148Z,97413.81
2022-10-15T00:52:49.434Z,97419.84
2022-10-15T00:55:24.917Z,97410.13
2022-10-15T00:57:54.262Z,97399.63
2022-10-15T01:00:24.830Z,97401.44
2022-10-15T01:02:53.309Z,97415.41
2022-10-15T01:05:25.543Z,97414.59
2022-10-15T01:07:54.771Z,97418.03
2022-10-15T01:10:33.052Z,97413.81
2022-10-15T01:13:13.155Z,97416.44
2022-10-15T01:15:50.676Z,97413.00
2022-10-15T01:18:30.702Z,97405.13
2022-10-15T01:21:15.720Z,97401.69
2022-10-15T01:24:38.618Z,97393.78
2022-10-15T01:27:40.034Z,97399.84
2022-10-15T01:30:32.736Z,97399.03
2022-10-15T01:33:28.566Z,97397.22
2022-10-15T01:36:06.757Z,97397.44
2022-10-15T01:38:52.144Z,97387.94
2022-10-15T01:41:31.395Z,97388.75
2022-10-15T01:44:06.518Z,97384.53
2022-10-15T01:46:45.569Z,97384.75
2022-10-15T01:49:21.406Z,97390.22
2022-10-15T01:51:54.001Z,97393.09
2022-10-15T01:54:28.426Z,97386.81
2022-10-15T01:57:00.061Z,97391.25
2022-10-15T01:59:33.597Z,97389.66
2022-10-15T02:02:04.045Z,97393.66
2022-10-15T02:04:34.321Z,97389.66
2022-10-15T02:07:08.868Z,97398.09
2022-10-15T02:09:51.466Z,97395.47
2022-10-15T02:12:48.062Z,97385.19
2022-10-15T02:15:25.126Z,97382.31
2022-10-15T02:18:06.706Z,97397.09
2022-10-15T02:20:45.195Z,97396.28
2022-10-15T02:23:21.017Z,97398.09
2022-10-15T02:25:53.266Z,97406.00
2022-10-15T02:28:26.116Z,97405.22
2022-10-15T02:30:58.558Z,97412.31
2022-10-15T02:33:32.128Z,97405.44
2022-10-15T02:36:02.288Z,97404.63
2022-10-15T02:38:35.430Z,97400.16
2022-10-15T02:41:05.857Z,97392.28
2022-10-15T02:43:34.382Z,97387.03
2022-10-15T02:46:02.936Z,97391.47
2022-10-15T02:48:32.778Z,97393.31
2022-10-15T02:51:01.225Z,97397.53
2022-10-15T02:53:29.648Z,97398.56
2022-10-15T02:55:58.141Z,97409.88
2022-10-15T02:58:27.186Z,97408.06
2022-10-15T03:00:56.266Z,97401.78
2022-10-15T03:03:24.910Z,97400.72
2022-10-15T03:05:55.010Z,97407.84
2022-10-15T03:08:23.671Z,97401.78
2022-10-15T03:10:53.493Z,97407.03
2022-10-15T03:13:22.312Z,97407.03
2022-10-15T03:15:50.981Z,97403.59
2022-10-15T03:18:19.509Z,97411.50
2022-10-15T03:20:57.301Z,97418.59
2022-10-15T03:23:26.797Z,97418.59
2022-10-15T03:25:55.275Z,97415.16
2022-10-15T03:28:24.093Z,97420.41
2022-10-15T03:30:52.803Z,97427.28
2022-10-15T03:33:24.458Z,97432.53
2022-10-15T03:35:55.075Z,97434.16
2022-10-15T03:38:25.484Z,97435.97
2022-10-15T03:40:54.437Z,97446.69
2022-10-15T03:43:26.438Z,97440.63
2022-10-15T03:45:55.378Z,97439.63
2022-10-15T03:48:25.329Z,97436.19
2022-10-15T03:50:55.001Z,97442.25
2022-10-15T03:53:25.069Z,97441.44
2022-10-15T03:55:53.539Z,97446.69
2022-10-15T03:58:22.753Z,97438.00
2022-10-15T04:00:51.256Z,97438.25
2022-10-15T04:03:19.675Z,97440.88
2022-10-15T04:05:54.138Z,97435.03
2022-10-15T04:08:28.144Z,97429.75
2022-10-15T04:10:56.745Z,97437.66
2022-10-15T04:13:25.223Z,97439.72
2022-10-15T04:15:53.769Z,97442.09
2022-10-15T04:18:22.769Z,97438.69
2022-10-15T04:20:51.418Z,97431.81
2022-10-15T04:23:20.388Z,97431.25
2022-10-15T04:25:50.354Z,97433.91
2022-10-15T04:28:18.897Z,97442.00
2022-10-15T04:30:48.634Z,97442.19
2022-10-15T04:33:18.131Z,97441.44
2022-10-15T04:35:46.604Z,97443.25
2022-10-15T04:38:15.606Z,97437.19
2022-10-15T04:40:44.070Z,97441.44
2022-10-15T04:43:14.310Z,97437.19
2022-10-15T04:45:43.602Z,97445.06
2022-10-15T04:48:12.610Z,97439.47
2022-10-15T04:50:42.096Z,97445.53
2022-10-15T04:53:10.575Z,97458.66
2022-10-15T04:55:39.169Z,97459.47
2022-10-15T04:58:15.888Z,97468.13
2022-10-15T05:00:45.020Z,97469.75
2022-10-15T05:03:13.566Z,97477.88
2022-10-15T05:05:42.033Z,97483.72
2022-10-15T05:08:10.497Z,97489.97
2022-10-15T05:10:40.084Z,97487.16
2022-10-15T05:13:08.500Z,97486.91
2022-10-15T05:15:39.451Z,97491.38
2022-10-15T05:18:07.935Z,97487.72
2022-10-15T05:20:36.440Z,97492.75
2022-10-15T05:23:06.396Z,97486.69
2022-10-15T05:25:35.535Z,97485.69
2022-10-15T05:28:04.035Z,97481.22
2022-10-15T05:30:33.171Z,97483.84
2022-10-15T05:33:03.061Z,97490.13
2022-10-15T05:35:31.605Z,97499.03
2022-10-15T05:38:00.160Z,97492.97
2022-10-15T05:40:29.097Z,97494.00
2022-10-15T05:42:58.073Z,97499.47
2022-10-15T05:45:26.681Z,97501.91
2022-10-15T05:47:56.270Z,97500.84
2022-10-15T05:50:26.213Z,97499.84
2022-10-15T05:52:58.644Z,97500.84
2022-10-15T05:55:27.113Z,97502.25
2022-10-15T05:57:56.077Z,97502.03
2022-10-15T06:00:25.014Z,97500.19
2022-10-15T06:05:22.459Z,97490.47
2022-10-15T06:07:52.464Z,97495.28
2022-10-15T06:10:21.392Z,97492.66
2022-10-15T06:12:53.212Z,97499.53
2022-10-15T06:15:21.735Z,97499.31
2022-10-15T06:17:54.604Z,97494.84
2022-10-15T06:20:23.279Z,97507.19
2022-10-15T06:22:53.228Z,97518.72
2022-10-15T06:25:21.800Z,97521.72
2022-10-15T06:27:51.118Z,97520.69
2022-10-15T06:30:21.136Z,97518.66
2022-10-15T06:32:51.360Z,97518.22
2022-10-15T06:35:22.528Z,97524.03
2022-10-15T06:37:55.596Z,97530.50
2022-10-15T06:40:26.499Z,97521.59
2022-10-15T06:42:56.272Z,97522.16
2022-10-15T06:45:24.738Z,97525.81
2022-10-15T06:47:53.275Z,97529.03
2022-10-15T06:50:21.770Z,97530.19
2022-10-15T06:52:51.193Z,97546.75
2022-10-15T06:55:21.209Z,97534.19
2022-10-15T06:57:50.911Z,97531.56
2022-10-15T07:00:20.016Z,97542.66
2022-10-15T07:02:48.576Z,97546.44
2022-10-15T07:05:17.954Z,97547.69
2022-10-15T07:07:53.760Z,97546.69
2022-10-15T07:10:24.208Z,97537.75
2022-10-15T07:12:52.849Z,97552.31
2022-10-15T07:15:21.467Z,97553.09
2022-10-15T07:17:50.556Z,97551.25
2022-10-15T07:20:21.953Z,97554.69
2022-10-15T07:22:57.771Z,97550.81
2022-10-15T07:25:28.676Z,97548.41
2022-10-15T07:27:58.079Z,97552.41
2022-10-15T07:30:28.660Z,97551.41
2022-10-15T07:32:58.419Z,97551.16
2022-10-15T07:35:27.483Z,97557.00
2022-10-15T07:37:56.492Z,97563.66
2022-10-15T07:40:26.539Z,97568.91
2022-10-15T07:42:55.552Z,97568.69
2022-10-15T07:45:25.000Z,97571.91
2022-10-15T07:47:54.294Z,97567.44
2022-10-15T07:50:24.322Z,97570.44
2022-10-15T07:52:53.596Z,97565.72
2022-10-15T07:55:22.205Z,97571.59
2022-10-15T07:57:52.297Z,97573.78
2022-10-15T08:00:21.949Z,97573.78
2022-10-15T08:02:50.644Z,97573.31
2022-10-15T08:05:19.428Z,97574.47
2022-10-15T08:07:48.056Z,97578.47
2022-10-15T08:10:18.778Z,97574.38
2022-10-15T08:12:47.380Z,97570.47
2022-10-15T08:15:17.830Z,97576.34
2022-10-15T08:17:46.349Z,97575.88
2022-10-15T08:20:15.141Z,97572.19
2022-10-15T08:22:43.766Z,97569.69
2022-10-15T08:25:12.794Z,97574.41
2022-10-15T08:27:42.082Z,97580.59
2022-10-15T08:30:12.503Z,97581.38
2022-10-15T08:32:42.494Z,97581.94
2022-10-15T08:35:11.940Z,97585.75
2022-10-15T08:37:40.511Z,97576.34
2022-10-15T08:40:14.740Z,97584.03
2022-10-15T08:42:47.322Z,97584.47
2022-10-15T08:45:20.958Z,97583.69
2022-10-15T08:47:58.496Z,97583.81
2022-10-15T08:50:40.384Z,97595.72
2022-10-15T08:53:15.518Z,97576.81
2022-10-15T08:55:51.128Z,97578.22
2022-10-15T08:58:26.848Z,97578.75
2022-10-15T09:01:03.319Z,97580.94
2022-10-15T09:03:45.945Z,97594.47
2022-10-15T09:06:22.940Z,97592.16
2022-10-15T09:09:02.905Z,97584.25
2022-10-15T09:11:48.328Z,97592.63
2022-10-15T09:14:23.538Z,97594.25
2022-10-15T09:16:55.308Z,97596.63
2022-10-15T09:19:30.376Z,97593.22
2022-10-15T09:22:03.150Z,97600.31
2022-10-15T09:24:32.854Z,97593.78
2022-10-15T09:27:11.262Z,97595.19
2022-10-15T09:29:51.317Z,97594.16
2022-10-15T09:32:28.192Z,97594.50
2022-10-15T09:35:07.357Z,97591.88
2022-10-15T09:37:53.862Z,97585.91
2022-10-15T09:40:45.171Z,97592.78
2022-10-15T09:43:23.710Z,97596.81
2022-10-15T09:45:52.222Z,97589.47
2022-10-15T09:48:23.206Z,97588.44
2022-10-15T09:51:08.479Z,97591.63
2022-10-15T09:53:52.000Z,97593.25
2022-10-15T09:56:24.881Z,97584.31
2022-10-15T09:58:59.290Z,97592.78
2022-10-15T10:01:32.728Z,97590.47
2022-10-15T10:04:15.034Z,97591.84
2022-10-15T10:06:53.910Z,97597.72
2022-10-15T10:09:25.967Z,97591.97
2022-10-15T10:11:59.297Z,97595.97
2022-10-15T10:14:33.367Z,97597.81
2022-10-15T10:17:16.822Z,97591.03
2022-10-15T10:19:46.552Z,97594.22
2022-10-15T10:22:20.928Z,97587.72
2022-10-15T10:24:50.045Z,97595.38
2022-10-15T10:27:24.660Z,97604.69
2022-10-15T10:30:00.692Z,97599.97
2022-10-15T10:32:33.422Z,97596.06
2022-10-15T10:35:05.289Z,97593.75
2022-10-15T10:37:44.737Z,97592.47
2022-10-15T10:40:29.505Z,97593.63
2022-10-15T10:43:24.494Z,97593.72
2022-10-15T10:45:59.995Z,97590.84
2022-10-15T10:48:39.475Z,97585.91
2022-10-15T10:51:18.298Z,97577.78
2022-10-15T10:53:57.170Z,97583.84
2022-10-15T10:56:31.409Z,97585.69
2022-10-15T10:59:06.013Z,97586.03
2022-10-15T11:01:34.796Z,97578.44
2022-10-15T11:04:04.089Z,97588.53
2022-10-15T11:06:57.413Z,97586.56
2022-10-15T11:09:56.299Z,97583.38
2022-10-15T11:13:05.137Z,97580.84
2022-10-15T11:15:49.398Z,97582.44
2022-10-15T11:18:36.067Z,97587.25
2022-10-15T11:21:23.471Z,97580.72
2022-10-15T11:24:13.005Z,97586.78
2022-10-15T11:27:14.880Z,97587.81
2022-10-15T11:29:57.339Z,97592.28
2022-10-15T11:33:06.930Z,97583.91
2022-10-15T11:35:53.448Z,97592.97
2022-10-15T11:38:38.018Z,97585.38
2022-10-15T11:41:36.202Z,97584.91
2022-10-15T11:44:50.822Z,97576.88
2022-10-15T11:47:36.045Z,97561.28
2022-10-15T11:50:26.279Z,97566.09
2022-10-15T11:53:24.618Z,97561.34
2022-10-15T11:56:03.549Z,97560.31
2022-10-15T11:58:39.757Z,97552.88
2022-10-15T12:01:19.873Z,97561.59
2022-10-15T12:03:56.491Z,97560.31
2022-10-15T12:06:33.813Z,97560.88
2022-10-15T12:09:06.952Z,97549.28
2022-10-15T12:11:50.954Z,97554.09
2022-10-15T12:14:32.328Z,97552.00
2022-10-15T12:17:15.903Z,97535.13
2022-10-15T12:19:54.535Z,97533.78
2022-10-15T12:22:40.584Z,97541.22
2022-10-15T12:25:47.488Z,97544.66
2022-10-15T12:28:22.003Z,97546.72
2022-10-15T12:31:03.213Z,97547.19
2022-10-15T12:33:38.450Z,97551.13
2022-10-15T12:36:22.502Z,97532.56
2022-10-15T12:39:00.482Z,97526.56
2022-10-15T12:41:43.381Z,97529.13
2022-10-15T12:44:24.127Z,97529.34
2022-10-15T12:46:52.908Z,97519.47
2022-10-15T12:50:03.534Z,97522.47
2022-10-15T12:53:00.879Z,97515.94
2022-10-15T12:55:34.366Z,97510.38
2022-10-15T12:58:28.236Z,97514.88
2022-10-15T13:00:57.605Z,97516.47
2022-10-15T13:03:37.764Z,97501.28
2022-10-15T13:06:39.455Z,97500.00
2022-10-15T13:09:30.756Z,97504.47
2022-10-15T13:12:02.544Z,97510.16
2022-10-15T13:14:37.011Z,97514.47
2022-10-15T13:17:15.908Z,97516.66
2022-10-15T13:19:54.636Z,97530.16
2022-10-15T13:22:27.466Z,97523.06
2022-10-15T13:24:56.958Z,97524.81
2022-10-15T13:27:30.331Z,97519.88
2022-10-15T13:30:01.648Z,97518.31
2022-10-15T13:32:35.057Z,97527.31
2022-10-15T13:35:12.844Z,97531.53
2022-10-15T13:37:48.151Z,97531.53
2022-10-15T13:40:25.222Z,97535.56
2022-10-15T13:43:01.516Z,97523.16
2022-10-15T13:45:34.701Z,97518.81
2022-10-15T13:48:04.522Z,97520.41
2022-10-15T13:50:37.582Z,97514.81
2022-10-15T13:53:19.497Z,97521.44
2022-10-15T13:55:51.835Z,97526.25
2022-10-15T13:58:27.485Z,97524.19
2022-10-15T14:01:01.649Z,97519.44
2022-10-15T14:03:39.381Z,97512.09
2022-10-15T14:06:19.706Z,97508.97
2022-10-15T14:08:52.833Z,97512.16
2022-10-15T14:11:22.188Z,97512.50
2022-10-15T14:13:52.989Z,97522.19
2022-10-15T14:16:29.167Z,97531.25
2022-10-15T14:19:11.970Z,97527.53
2022-10-15T14:21:51.967Z,97526.28
2022-10-15T14:24:26.028Z,97532.09
2022-10-15T14:26:55.073Z,97532.91
2022-10-15T14:29:29.118Z,97525.00
2022-10-15T14:31:58.803Z,97526.59
2022-10-15T14:34:38.789Z,97521.75
2022-10-15T14:37:32.019Z,97523.38
2022-10-15T14:40:20.166Z,97531.88
2022-10-15T14:42:50.906Z,97522.34
2022-10-15T14:45:28.658Z,97527.31
2022-10-15T14:48:00.843Z,97530.28
2022-10-15T14:50:33.677Z,97529.78
2022-10-15T14:53:09.387Z,97535.06
2022-10-15T14:55:45.453Z,97535.06
2022-10-15T14:58:20.631Z,97541.38
2022-10-15T15:00:56.341Z,97548.81
2022-10-15T15:03:32.454Z,97554.09
2022-10-15T15:06:01.292Z,97548.81
2022-10-15T15:08:30.799Z,97547.25
2022-10-15T15:11:08.975Z,97542.44
2022-10-15T15:13:42.298Z,97549.31
2022-10-15T15:16:14.092Z,97549.31
2022-10-15T15:18:44.167Z,97547.72
2022-10-15T15:21:18.847Z,97545.63
2022-10-15T15:23:49.631Z,97543.47
2022-10-15T15:26:24.462Z,97536.09
2022-10-15T15:28:54.895Z,97541.38
2022-10-15T15:31:24.071Z,97531.88
2022-10-15T15:33:52.692Z,97533.94
2022-10-15T15:36:23.739Z,97532.91
2022-10-15T15:38:53.660Z,97534.75
2022-10-15T15:41:25.466Z,97542.13
2022-10-15T15:43:54.983Z,97552.69
2022-10-15T15:46:26.634Z,97551.63
2022-10-15T15:48:57.086Z,97543.88
2022-10-15T15:51:31.153Z,97551.78
2022-10-15T15:54:02.836Z,97553.88
2022-10-15T15:56:34.984Z,97556.53
2022-10-15T15:59:03.814Z,97558.13
2022-10-15T16:01:32.473Z,97557.06
2022-10-15T16:04:01.148Z,97554.44
2022-10-15T16:06:29.694Z,97556.25
2022-10-15T16:09:00.200Z,97552.84
2022-10-15T16:11:28.748Z,97554.09
2022-10-15T16:13:58.722Z,97562.84
2022-10-15T16:16:28.451Z,97561.22
2022-10-15T16:18:57.329Z,97564.34
2022-10-15T16:21:27.000Z,97568.81
2022-10-15T16:23:55.969Z,97574.91
2022-10-15T16:26:25.006Z,97578.34
2022-10-15T16:28:53.699Z,97581.81
2022-10-15T16:31:29.630Z,97581.00
2022-10-15T16:33:59.820Z,97585.47
2022-10-15T16:36:28.316Z,97595.81
2022-10-15T16:38:56.932Z,97596.28
2022-10-15T16:41:25.839Z,97605.03
2022-10-15T16:43:54.415Z,97599.97
2022-10-15T16:46:24.280Z,97608.69
2022-10-15T16:48:57.908Z,97603.63
2022-10-15T16:51:27.682Z,97620.28
2022-10-15T16:53:58.640Z,97614.44
2022-10-15T16:56:29.735Z,97620.53
2022-10-15T16:58:59.027Z,97610.66
2022-10-15T17:01:31.283Z,97616.97
2022-10-15T17:04:01.028Z,97625.94
2022-10-15T17:06:31.997Z,97617.47
2022-10-15T17:09:04.371Z,97607.38
2022-10-15T17:11:35.922Z,97615.28
2022-10-15T17:14:08.784Z,97606.56
2022-10-15T17:16:42.217Z,97624.25
2022-10-15T17:19:13.105Z,97633.44
2022-10-15T17:21:42.538Z,97637.91
2022-10-15T17:24:14.527Z,97647.94
2022-10-15T17:26:45.781Z,97648.94
2022-10-15T17:29:20.254Z,97658.34
2022-10-15T17:31:52.687Z,97655.47
2022-10-15T17:34:21.754Z,97653.53
2022-10-15T17:36:52.341Z,97658.25
2022-10-15T17:39:23.099Z,97660.09
2022-10-15T17:41:52.724Z,97662.94
2022-10-15T17:44:21.454Z,97665.84
2022-10-15T17:46:52.785Z,97673.16
2022-10-15T17:49:21.577Z,97675.25
2022-10-15T17:51:50.139Z,97671.00
2022-10-15T17:54:18.706Z,97667.81
2022-10-15T17:56:47.145Z,97676.97
2022-10-15T17:59:21.589Z,97674.25
2022-10-15T18:01:58.471Z,97682.38
2022-10-15T18:04:28.806Z,97690.53
2022-10-15T18:06:58.753Z,97704.19
2022-10-15T18:09:28.263Z,97697.31
2022-10-15T18:11:59.058Z,97696.72
2022-10-15T18:14:28.303Z,97698.59
2022-10-15T18:16:59.068Z,97710.63
2022-10-15T18:19:28.474Z,97712.91
2022-10-15T18:21:57.557Z,97711.88
2022-10-15T18:24:26.794Z,97707.88
2022-10-15T18:26:55.658Z,97712.44
2022-10-15T18:29:25.794Z,97720.81
2022-10-15T18:31:58.146Z,97726.91
2022-10-15T18:34:30.456Z,97730.81
2022-10-15T18:36:59.097Z,97726.34
2022-10-15T18:39:28.431Z,97716.00
2022-10-15T18:41:57.245Z,97716.00
2022-10-15T18:44:27.871Z,97716.69
2022-10-15T18:46:56.830Z,97712.69
2022-10-15T18:49:26.109Z,97710.72
2022-10-15T18:52:00.415Z,97715.44
2022-10-15T18:54:36.807Z,97712.81
2022-10-15T18:57:06.649Z,97721.72
2022-10-15T18:59:35.698Z,97720.13
2022-10-15T19:02:04.731Z,97728.72
2022-10-15T19:04:34.362Z,97722.09
2022-10-15T19:07:04.715Z,97724.94
2022-10-15T19:09:34.783Z,97730.22
2022-10-15T19:12:04.596Z,97728.03
2022-10-15T19:14:33.874Z,97742.69
2022-10-15T19:17:02.764Z,97740.28
2022-10-15T19:19:31.923Z,97736.25
2022-10-15T19:22:00.967Z,97730.63
2022-10-15T19:24:31.670Z,97737.75
2022-10-15T19:27:00.637Z,97744.28
2022-10-15T19:29:34.412Z,97748.97
2022-10-15T19:32:05.437Z,97760.53
2022-10-15T19:34:36.071Z,97762.81
2022-10-15T19:37:05.475Z,97763.63
2022-10-15T19:39:36.022Z,97754.19
2022-10-15T19:42:05.209Z,97761.28
2022-10-15T19:44:34.123Z,97770.44
2022-10-15T19:47:02.770Z,97774.34
2022-10-15T19:49:31.728Z,97773.53
2022-10-15T19:52:01.163Z,97774.75
2022-10-15T19:54:31.373Z,97772.56
2022-10-15T19:57:01.435Z,97777.28
2022-10-15T19:59:30.146Z,97780.94
2022-10-15T20:01:59.627Z,97775.09
2022-10-15T20:04:29.100Z,97767.63
2022-10-15T20:06:57.626Z,97776.78
2022-10-15T20:09:26.314Z,97769.56
2022-10-15T20:11:55.859Z,97779.28
2022-10-15T20:14:25.879Z,97781.31
2022-10-15T20:16:54.439Z,97785.50
2022-10-15T20:19:23.974Z,97791.47
2022-10-15T20:21:53.154Z,97794.44
2022-10-15T20:24:22.733Z,97797.09
2022-10-15T20:26:51.646Z,97806.56
2022-10-15T20:29:20.145Z,97793.41
2022-10-15T20:31:51.415Z,97788.13
2022-10-15T20:34:20.485Z,97798.66
2022-10-15T20:36:54.248Z,97797.97
2022-10-15T20:39:25.374Z,97795.34
2022-10-15T20:41:54.111Z,97805.06
2022-10-15T20:44:23.277Z,97797.16
2022-10-15T20:46:58.453Z,97806.28
2022-10-15T20:49:35.531Z,97809.38
2022-10-15T20:52:05.966Z,97809.59
2022-10-15T20:54:35.608Z,97808.78
2022-10-15T20:57:05.116Z,97816.69
2022-10-15T20:59:33.710Z,97829.50
2022-10-15T21:02:03.634Z,97828.88
2022-10-15T21:04:32.178Z,97838.84
2022-10-15T21:07:00.662Z,97836.41
2022-10-15T21:09:29.677Z,97829.78
2022-10-15T21:11:58.139Z,97837.28
2022-10-15T21:14:26.640Z,97839.13
2022-10-15T21:16:55.109Z,97847.25
2022-10-15T21:19:25.096Z,97840.00
2022-10-15T21:21:53.706Z,97850.75
2022-10-15T21:24:22.351Z,97855.41
2022-10-15T21:26:52.430Z,97853.22
2022-10-15T21:29:21.670Z,97846.34
2022-10-15T21:31:50.800Z,97832.63
2022-10-15T21:34:20.274Z,97833.63
2022-10-15T21:36:50.521Z,97842.41
2022-10-15T21:39:19.796Z,97849.09
2022-10-15T21:41:49.137Z,97846.69
2022-10-15T21:44:18.651Z,97859.06
2022-10-15T21:46:47.187Z,97853.56
2022-10-15T21:49:16.408Z,97850.34
2022-10-15T21:51:45.712Z,97848.53
2022-10-15T21:54:16.548Z,97839.00
2022-10-15T21:56:45.241Z,97844.28
2022-10-15T21:59:14.173Z,97850.78
2022-10-15T22:01:45.473Z,97860.94
2022-10-15T22:04:14.200Z,97855.88
2022-10-15T22:06:43.141Z,97865.59
2022-10-15T22:09:12.836Z,97873.88
2022-10-15T22:11:44.344Z,97875.69
2022-10-15T22:14:15.824Z,97867.00
2022-10-15T22:16:45.478Z,97860.72
2022-10-15T22:19:18.421Z,97865.41
2022-10-15T22:21:47.652Z,97882.00
2022-10-15T22:24:19.070Z,97883.22
2022-10-15T22:26:52.279Z,97872.69
2022-10-15T22:29:24.007Z,97884.47
2022-10-15T22:31:54.372Z,97885.69
2022-10-15T22:34:24.508Z,97883.69
2022-10-15T22:36:53.137Z,97895.47
2022-10-15T22:39:22.555Z,97892.22
2022-10-15T22:41:52.394Z,97893.03
2022-10-15T22:44:22.929Z,97892.22
2022-10-15T22:46:51.713Z,97900.97
2022-10-15T22:49:22.827Z,97885.81
2022-10-15T22:51:52.607Z,97882.13
2022-10-15T22:54:23.653Z,97879.94
2022-10-15T22:56:54.631Z,97877.91
2022-10-15T22:59:23.179Z,97882.38
2022-10-15T23:01:51.820Z,97899.97
2022-10-15T23:04:20.419Z,97909.66
2022-10-15T23:06:49.826Z,97905.22
2022-10-15T23:09:20.080Z,97896.13
2022-10-15T23:11:48.529Z,97888.06
2022-10-15T23:14:18.891Z,97895.13
2022-10-15T23:16:50.029Z,97893.50
2022-10-15T23:19:20.812Z,97894.53
2022-10-15T23:21:53.418Z,97897.16
2022-10-15T23:24:25.016Z,97899.19
2022-10-15T23:26:54.250Z,97898.59
2022-10-15T23:29:27.704Z,97902.84
2022-10-15T23:31:56.953Z,97899.63
2022-10-15T23:34:27.548Z,97902.44
2022-10-15T23:36:56.038Z,97895.38
2022-10-15T23:39:27.509Z,97893.75
2022-10-15T23:41:56.970Z,97903.25
2022-10-15T23:44:28.631Z,97896.38
2022-10-15T23:46:57.843Z,97906.91
2022-10-15T23:49:26.348Z,97897.19
2022-10-15T23:51:54.797Z,97906.91
2022-10-15T23:54:23.948Z,97916.59
2022-10-15T23:56:52.566Z,97918.47
2022-10-15T23:59:21.760Z,97921.09
